Terminal Aerodrome Forecast
Issued by NWS Quad Cities IA IL

Home | Current Version | Previous Version | Text Only | Print | Product List | Glossary On
Versions: 1 2 3 4 5 6 7 8 9 10 11 12 13 14 15 16 17 18 19 20 21 22
000
FTUS43 KDVN 170500
TAFDBQ
TAF
KDBQ 170520Z 1706/1806 31011KT P6SM OVC015
     FM171100 32010KT P6SM BKN020
     FM171700 32010KT P6SM SCT025
     FM180000 33004KT P6SM SCT200=

USA.gov is the U.S. government's official web portal to all federal, state and local government web resources and services.